»·PEaware :: SWA5179 KSFO-KPDX

SWA5179 :: KSFO-KPDX

FLIGHT INFORMATION

Flight Status: Arrived
Operator:
Southwest Airlines
More flights by this operator :: More flights under this callsign
Pilot: Marissa K. (19829)
Aircraft: BOEING 737-800
(B738)
More flights by this aircraft type
Origin: KSFO San Francisco Intl
United States
Destination: KPDX Portland Intl
United States
More flights between these airports :: More routes between these airports
Route: +TRUKN2 GRTFL MACHU TMBRS2
File this flight plan on PilotEdge
Remarks: RMK / NEW PILOT
Altitude:
(Current/Filed)
36,000ft
Speed:
(Current/Filed)
285kts
Departed: 04-Aug-18 08:58 PM
Arrived: 04-Aug-18 10:25 PM
Distance/Time
Traveled:
478nm/1:26
Distance/Time
To Go:
Arrived

Flight Plot

Page will automatically refresh every two minutes.


Map Options




Map Legend


Flown Route
Filed Route
Departure Airport
Arrival Airport
Navaid (VOR, NDB)
Fix

Horizontal Profiles

Position Reports

Time Latitude Longitude Heading Altitude Ground
Speed
04-Aug-18 20:17 37.621006 -122.388492 210 31ft 0kts
04-Aug-18 20:18 37.621006 -122.388492 210 31ft 0kts
04-Aug-18 20:19 37.621006 -122.388492 210 31ft 0kts
04-Aug-18 20:20 37.621006 -122.388492 210 31ft 0kts
04-Aug-18 20:21 37.621006 -122.388492 210 31ft 0kts
04-Aug-18 20:22 37.621006 -122.388492 210 31ft 0kts
04-Aug-18 20:23 37.621006 -122.388492 210 31ft 0kts
04-Aug-18 20:24 37.621006 -122.388492 210 31ft 0kts
04-Aug-18 20:25 37.621006 -122.388492 210 31ft 0kts
04-Aug-18 20:26 37.621006 -122.388492 210 31ft 0kts
04-Aug-18 20:27 37.621006 -122.388492 210 31ft 0kts
04-Aug-18 20:28 37.621006 -122.388492 210 31ft 0kts
04-Aug-18 20:29 37.621006 -122.388492 210 31ft 0kts
04-Aug-18 20:30 37.621006 -122.388492 210 31ft 0kts
04-Aug-18 20:31 37.621006 -122.388492 210 31ft 0kts
04-Aug-18 20:32 37.621006 -122.388492 210 31ft 0kts
04-Aug-18 20:33 37.621006 -122.388492 210 31ft 0kts
04-Aug-18 20:34 37.621006 -122.388492 210 31ft 0kts
04-Aug-18 20:35 37.621006 -122.388492 210 31ft 0kts
04-Aug-18 20:36 37.621006 -122.388492 210 31ft 0kts
04-Aug-18 20:37 37.621006 -122.388492 210 31ft 0kts
04-Aug-18 20:38 37.621006 -122.388492 210 31ft 0kts
04-Aug-18 20:39 37.621006 -122.388492 210 31ft 0kts
04-Aug-18 20:40 37.621006 -122.388492 210 31ft 0kts
04-Aug-18 20:41 37.621006 -122.388492 210 31ft 0kts
04-Aug-18 20:42 37.621006 -122.388492 210 31ft 0kts
04-Aug-18 20:43 37.621155 -122.388383 210 31ft 2kts
04-Aug-18 20:44 37.621628 -122.388043 204 31ft 2kts
04-Aug-18 20:45 37.622116 -122.388089 148 30ft 2kts
04-Aug-18 20:46 37.622333 -122.388397 117 29ft 0kts
04-Aug-18 20:47 37.622333 -122.388397 117 29ft 0kts
04-Aug-18 20:48 37.622333 -122.388397 117 29ft 0kts
04-Aug-18 20:49 37.622017 -122.387627 117 30ft 7kts
04-Aug-18 20:50 37.620543 -122.384087 118 31ft 23kts
04-Aug-18 20:51 37.615505 -122.380339 210 31ft 24kts
04-Aug-18 20:52 37.611458 -122.383452 199 31ft 16kts
04-Aug-18 20:53 37.610110 -122.384230 203 31ft 2kts
04-Aug-18 20:54 37.609436 -122.384384 170 31ft 3kts
04-Aug-18 20:55 37.608954 -122.383776 121 31ft 0kts
04-Aug-18 20:56 37.608954 -122.383776 121 31ft 0kts
04-Aug-18 20:57 37.608938 -122.383741 119 31ft 4kts
04-Aug-18 20:58 37.610171 -122.381393 13 30ft 8kts
04-Aug-18 20:59 37.613366 -122.379476 28 30ft 86kts
04-Aug-18 21:00 37.648576 -122.344347 50 1500ft 206kts
04-Aug-18 21:01 37.685499 -122.276189 54 2574ft 254kts
04-Aug-18 21:02 37.734513 -122.216346 8 4905ft 250kts
04-Aug-18 21:03 37.803783 -122.215847 354 6929ft 256kts
04-Aug-18 21:04 37.876024 -122.218005 354 8741ft 267kts
04-Aug-18 21:05 37.950912 -122.220152 354 10421ft 274kts
04-Aug-18 21:06 38.027234 -122.222267 354 12075ft 282kts
04-Aug-18 21:07 38.108452 -122.224672 353 13992ft 334kts
04-Aug-18 21:08 38.203450 -122.227221 352 17142ft 352kts
04-Aug-18 21:09 38.303222 -122.229920 351 19992ft 369kts
04-Aug-18 21:10 38.407386 -122.236000 346 22536ft 383kts
04-Aug-18 21:11 38.515645 -122.247813 345 24720ft 398kts
04-Aug-18 21:12 38.627289 -122.259996 344 26821ft 412kts
04-Aug-18 21:13 38.743163 -122.272606 344 28713ft 427kts
04-Aug-18 21:14 38.861885 -122.285408 343 30801ft 431kts
04-Aug-18 21:15 38.980564 -122.298286 344 32850ft 429kts
04-Aug-18 21:16 39.096374 -122.310751 345 35070ft 416kts
04-Aug-18 21:17 39.207068 -122.322920 345 35941ft 430kts
04-Aug-18 21:18 39.330086 -122.336461 346 35910ft 456kts
04-Aug-18 21:19 39.455464 -122.349965 346 35905ft 456kts
04-Aug-18 21:20 39.580540 -122.363504 346 35908ft 457kts
04-Aug-18 21:21 39.706263 -122.377127 346 35911ft 456kts
04-Aug-18 21:22 39.832073 -122.390745 346 35909ft 455kts
04-Aug-18 21:23 39.957686 -122.404378 346 35915ft 455kts
04-Aug-18 21:24 40.083369 -122.418028 346 35915ft 456kts
04-Aug-18 21:25 40.204646 -122.431235 346 35903ft 455kts
04-Aug-18 21:26 40.330316 -122.444914 346 35892ft 456kts
04-Aug-18 21:27 40.456239 -122.458607 346 35893ft 456kts
04-Aug-18 21:28 40.581798 -122.472245 346 35893ft 456kts
04-Aug-18 21:29 40.707530 -122.485875 346 35892ft 454kts
04-Aug-18 21:30 40.833725 -122.499651 346 35899ft 456kts
04-Aug-18 21:31 40.959356 -122.513311 346 35899ft 456kts
04-Aug-18 21:32 41.080620 -122.526446 350 35957ft 425kts
04-Aug-18 21:33 41.192416 -122.538676 351 36027ft 424kts
04-Aug-18 21:34 41.309484 -122.551391 351 36076ft 424kts
04-Aug-18 21:35 41.425934 -122.564061 351 36075ft 424kts
04-Aug-18 21:36 41.542359 -122.576318 353 36078ft 425kts
04-Aug-18 21:37 41.659938 -122.584029 353 36075ft 426kts
04-Aug-18 21:38 41.777336 -122.591625 353 36078ft 425kts
04-Aug-18 21:39 41.894979 -122.599276 353 36078ft 425kts
04-Aug-18 21:40 42.012505 -122.606948 353 36075ft 426kts
04-Aug-18 21:41 42.126412 -122.614391 353 36068ft 425kts
04-Aug-18 21:42 42.244428 -122.622192 353 36016ft 425kts
04-Aug-18 21:43 42.361579 -122.629980 353 36006ft 425kts
04-Aug-18 21:44 42.479602 -122.637850 353 36005ft 425kts
04-Aug-18 21:45 42.597286 -122.645766 353 36005ft 426kts
04-Aug-18 21:46 42.713530 -122.653633 352 36009ft 425kts
04-Aug-18 21:47 42.830011 -122.661623 352 36010ft 425kts
04-Aug-18 21:48 42.943504 -122.669406 353 36010ft 418kts
04-Aug-18 21:49 43.058622 -122.677412 356 36012ft 415kts
04-Aug-18 21:50 43.167395 -122.684932 356 36044ft 415kts
04-Aug-18 21:51 43.282124 -122.692862 356 36057ft 415kts
04-Aug-18 21:52 43.396916 -122.700851 356 36056ft 415kts
04-Aug-18 21:53 43.511310 -122.708814 356 36053ft 414kts
04-Aug-18 21:54 43.626309 -122.716845 356 36050ft 413kts
04-Aug-18 21:55 43.740508 -122.724779 356 36042ft 414kts
04-Aug-18 21:56 43.854480 -122.732774 356 34817ft 407kts
04-Aug-18 21:57 43.967967 -122.740716 355 31692ft 422kts
04-Aug-18 21:58 44.082549 -122.748709 354 29145ft 410kts
04-Aug-18 21:59 44.191248 -122.751059 1 26903ft 403kts
04-Aug-18 22:00 44.300992 -122.739546 1 24655ft 395kts
04-Aug-18 22:01 44.408998 -122.728509 1 22425ft 386kts
04-Aug-18 22:02 44.513478 -122.717935 1 20288ft 366kts
04-Aug-18 22:03 44.613631 -122.707850 1 18286ft 361kts
04-Aug-18 22:04 44.711250 -122.697966 1 16312ft 349kts
04-Aug-18 22:05 44.806452 -122.688320 2 14467ft 341kts
04-Aug-18 22:06 44.898368 -122.679024 2 12676ft 320kts
04-Aug-18 22:07 44.982369 -122.670489 2 11331ft 292kts
04-Aug-18 22:08 45.060944 -122.662482 3 10181ft 277kts
04-Aug-18 22:09 45.135952 -122.654839 3 9072ft 278kts
04-Aug-18 22:10 45.212211 -122.647040 3 7939ft 274kts
04-Aug-18 22:11 45.282693 -122.615496 31 6877ft 271kts
04-Aug-18 22:12 45.343517 -122.559966 31 5849ft 248kts
04-Aug-18 22:13 45.398134 -122.510349 30 5013ft 221kts
04-Aug-18 22:14 45.431356 -122.443541 94 3962ft 222kts
04-Aug-18 22:15 45.407334 -122.368083 113 3058ft 200kts
04-Aug-18 22:16 45.430037 -122.311294 28 3006ft 187kts
04-Aug-18 22:17 45.473952 -122.277211 27 3003ft 173kts
04-Aug-18 22:18 45.512310 -122.283640 277 2973ft 151kts
04-Aug-18 22:19 45.508515 -122.340915 264 3000ft 138kts
04-Aug-18 22:20 45.515444 -122.391878 299 2806ft 133kts
04-Aug-18 22:21 45.533154 -122.437592 300 2113ft 131kts
04-Aug-18 22:22 45.550744 -122.482577 300 1407ft 129kts
04-Aug-18 22:23 45.568112 -122.527078 300 714ft 128kts
04-Aug-18 22:24 45.585247 -122.571169 299 27ft 125kts
04-Aug-18 22:25 45.593939 -122.593405 300 24ft 43kts
04-Aug-18 22:26 45.594361 -122.597981 237 27ft 1kts
04-Aug-18 22:27 45.594246 -122.598229 236 27ft 3kts
04-Aug-18 22:28 45.591159 -122.598897 154 24ft 17kts
04-Aug-18 22:29 45.590420 -122.596985 99 24ft 0kts
04-Aug-18 22:30 45.589375 -122.595742 187 24ft 0kts
04-Aug-18 22:31 45.589375 -122.595742 187 24ft 0kts
04-Aug-18 22:32 45.589375 -122.595742 187 24ft 0kts
04-Aug-18 22:33 45.589375 -122.595742 187 24ft 0kts
04-Aug-18 22:34 45.589375 -122.595742 187 24ft 0kts
04-Aug-18 22:35 45.589375 -122.595742 187 24ft 0kts
04-Aug-18 22:36 45.589375 -122.595742 187 24ft 0kts
04-Aug-18 22:37 45.589375 -122.595742 187 24ft 0kts
04-Aug-18 22:38 45.589375 -122.595742 187 24ft 0kts
04-Aug-18 22:39 45.589375 -122.595742 187 24ft 0kts
04-Aug-18 22:40 45.589375 -122.595742 187 24ft 0kts

Navigation Log

Ident Type
1. KSFO Airport
2. KPDX Airport